Decoded Metar for SBMO (MACEIO in BRAZIL) (IATA:MCZ) | Meteo·Mobile Aviation Weather
aviador You're here:

SBMO Decoded Metar

MACEIO in BRAZIL
Report Time2018-12-14 13:00:00
UTC Time2018-12-14 13:27:18
Flight Rules vfr VFR
Wind100° at 13 kt
W.Decomp.*RWY 12: 13.0 kt HW 0.5 kt RCW
W.Rank100° ranks 1
Current wind is above 100° avg. (8.0)
Visibility9999 m
Phenomena:N/A
Clouds:Scattered 025 Hf
Expected CloudBase > 4,000 ft AGL from Temp-Dew spread
CeilingNone
Temp29°C (ISA +15)
Dew Point19°C (55% RH)
Heat Index30.3°C
AAT27.6°C
QNH1017 hPa
Density Alt2,228 ft
Elevation377 ft
Report Wrong Elevation
Raw Report
METAR SBMO 141300Z 10013KT 9999 SCT025 29/19 Q1017=

Extra information for SBMO:More info

Metar Taf Metar & Taf Last 4 Metars F.Rules Stats Wind Profile Meteogram Temp Stats Airport Information Weather charts Add Link Nearby VenuesMetar ALERT Operation Metar Decoded Social comments